Time;durP1;ratioP1;P1;durP2;ratioP2;P2;SDS_P1;SDS_P2;PMS_P1;PMS_P2;Temp;Humidity;BMP_temperature;BMP_pressure;BME280_temperature;BME280_humidity;BME280_pressure;Samples;Min_cycle;Max_cycle;Signal;HPM_P1;HPM_P2
2024/01/02 05:00:56;;;;;;;0.87;0.77;;;5.10;97.30;;;;;;5809686;23;20629;-94
2024/01/02 05:03:22;;;;;;;1.00;0.90;;;5.10;97.30;;;;;;4957733;29;20442;-94
2024/01/02 05:05:50;;;;;;;1.10;1.00;;;5.10;97.30;;;;;;4971741;28;20193;-95
2024/01/02 05:08:16;;;;;;;1.60;1.20;;;5.10;97.30;;;;;;4992351;28;20410;-93
2024/01/02 05:10:42;;;;;;;1.10;1.00;;;5.10;97.30;;;;;;4957338;28;20473;-93
2024/01/02 05:13:07;;;;;;;0.90;0.80;;;5.10;97.30;;;;;;4959858;28;20446;-94
2024/01/02 05:15:35;;;;;;;1.00;0.90;;;5.10;97.30;;;;;;4956433;28;20624;-94
2024/01/02 05:18:03;;;;;;;1.00;0.90;;;5.10;97.30;;;;;;4963099;28;20450;-94
2024/01/02 05:20:28;;;;;;;0.90;0.80;;;5.10;97.30;;;;;;4963692;28;20430;-93
2024/01/02 05:22:54;;;;;;;0.90;0.80;;;5.10;97.30;;;;;;4948626;28;20446;-92
2024/01/02 05:25:19;;;;;;;1.00;0.90;;;5.10;97.30;;;;;;4963900;28;20203;-94
2024/01/02 05:27:45;;;;;;;0.90;0.80;;;5.00;97.30;;;;;;4959837;28;20534;-93
2024/01/02 05:30:12;;;;;;;0.90;0.80;;;5.10;97.30;;;;;;4961967;28;20221;-93
2024/01/02 05:32:37;;;;;;;0.90;0.80;;;5.00;97.30;;;;;;4956287;28;20295;-94
2024/01/02 05:35:03;;;;;;;0.90;0.80;;;5.00;97.30;;;;;;4947075;28;20462;-93
2024/01/02 05:37:29;;;;;;;0.80;0.70;;;5.00;97.30;;;;;;4961344;28;20650;-93
2024/01/02 05:39:55;;;;;;;1.77;1.13;;;5.00;97.30;;;;;;4962696;28;20438;-94
2024/01/02 05:42:21;;;;;;;0.90;0.80;;;5.00;97.30;;;;;;4963068;28;20311;-94
2024/01/02 05:44:47;;;;;;;2.30;1.57;;;5.10;97.30;;;;;;4964939;28;20811;-95
2024/01/02 05:47:12;;;;;;;0.87;0.77;;;5.10;97.30;;;;;;4962382;28;20179;-94
2024/01/02 05:49:41;;;;;;;0.90;0.80;;;5.10;97.30;;;;;;4964915;28;20538;-93
2024/01/02 05:52:06;;;;;;;0.90;0.80;;;5.10;97.30;;;;;;4965564;28;20218;-95
2024/01/02 05:54:32;;;;;;;0.90;0.80;;;5.10;97.30;;;;;;4964757;28;20423;-94
2024/01/02 05:56:58;;;;;;;4.30;2.10;;;5.10;97.30;;;;;;4961573;28;20179;-93
2024/01/02 05:59:24;;;;;;;0.90;0.80;;;5.10;97.30;;;;;;4961341;28;20761;-92
2024/01/02 06:01:49;;;;;;;1.73;1.47;;;5.10;97.30;;;;;;4959888;28;20389;-95
2024/01/02 06:04:15;;;;;;;0.80;0.70;;;5.10;97.30;;;;;;4959061;28;20198;-93
2024/01/02 06:06:40;;;;;;;1.00;0.90;;;5.10;97.30;;;;;;4959381;28;20190;-95
2024/01/02 06:09:06;;;;;;;1.00;0.90;;;5.10;97.30;;;;;;4958602;28;20187;-94
2024/01/02 06:11:31;;;;;;;0.90;0.80;;;5.10;97.30;;;;;;4960376;28;20527;-94
2024/01/02 06:13:57;;;;;;;0.90;0.80;;;5.10;97.30;;;;;;4959975;28;20495;-93
2024/01/02 06:16:23;;;;;;;1.00;0.90;;;5.10;97.30;;;;;;4958427;28;20186;-95
2024/01/02 06:18:48;;;;;;;0.90;0.80;;;5.10;97.30;;;;;;4961161;28;20269;-94
2024/01/02 06:21:14;;;;;;;3.97;2.03;;;5.10;97.30;;;;;;4962970;28;20305;-94
2024/01/02 06:23:40;;;;;;;7.93;1.40;;;5.10;97.30;;;;;;4961114;28;20474;-94
2024/01/02 06:26:06;;;;;;;1.00;0.90;;;5.10;97.30;;;;;;4958723;28;20903;-95
2024/01/02 06:28:31;;;;;;;1.00;0.90;;;5.10;97.30;;;;;;4959829;28;20194;-94
2024/01/02 06:30:57;;;;;;;1.00;0.90;;;5.10;97.30;;;;;;4960935;28;20576;-94
2024/01/02 06:33:24;;;;;;;9.73;1.10;;;5.10;97.30;;;;;;4961472;28;20210;-94
2024/01/02 06:35:50;;;;;;;1.53;1.43;;;5.20;97.30;;;;;;4961465;28;20190;-94
2024/01/02 06:38:16;;;;;;;0.90;0.80;;;5.20;97.30;;;;;;4961977;28;20422;-93
2024/01/02 06:40:42;;;;;;;0.90;0.80;;;5.20;97.30;;;;;;4961920;28;20199;-94
2024/01/02 06:43:07;;;;;;;0.90;0.80;;;5.20;97.30;;;;;;4963026;28;20505;-95
2024/01/02 06:45:33;;;;;;;1.10;1.00;;;5.20;97.30;;;;;;4962082;28;20366;-94
2024/01/02 06:47:58;;;;;;;1.80;1.40;;;5.20;97.30;;;;;;4959580;28;20176;-92
2024/01/02 06:50:24;;;;;;;1.00;0.80;;;5.20;97.30;;;;;;4960051;28;20290;-95
2024/01/02 06:52:49;;;;;;;1.00;0.90;;;5.20;97.30;;;;;;4960640;28;20210;-95
2024/01/02 06:55:15;;;;;;;1.20;1.10;;;5.20;97.30;;;;;;4943284;29;20230;-93
2024/01/02 06:57:40;;;;;;;0.80;0.70;;;5.30;97.30;;;;;;4959792;28;20254;-94
2024/01/02 07:00:07;;;;;;;0.90;0.80;;;5.20;97.30;;;;;;4960314;28;20183;-95
2024/01/02 07:02:33;;;;;;;2.70;1.00;;;5.30;97.30;;;;;;4960353;28;20243;-93
2024/01/02 07:04:59;;;;;;;4.33;3.33;;;5.30;97.30;;;;;;4960272;28;20462;-95
2024/01/02 07:07:25;;;;;;;1.07;0.97;;;5.30;97.30;;;;;;4960576;28;20431;-94
2024/01/02 07:09:51;;;;;;;1.00;0.90;;;5.30;97.30;;;;;;4962454;28;20454;-94
2024/01/02 07:12:17;;;;;;;0.90;0.80;;;5.30;97.30;;;;;;4962201;28;20454;-96
2024/01/02 07:14:43;;;;;;;0.90;0.80;;;5.30;97.30;;;;;;4964047;28;20274;-94
2024/01/02 07:17:09;;;;;;;0.90;0.80;;;5.30;97.30;;;;;;4950831;28;20774;-94
2024/01/02 07:19:35;;;;;;;0.90;0.80;;;5.30;97.30;;;;;;4967446;28;20426;-94
2024/01/02 07:22:01;;;;;;;1.20;1.10;;;5.30;97.30;;;;;;4970957;28;20203;-96
2024/01/02 07:24:26;;;;;;;0.80;0.70;;;5.30;97.30;;;;;;4972169;28;20264;-96
2024/01/02 07:26:52;;;;;;;0.90;0.80;;;5.30;97.30;;;;;;4973169;28;20745;-94
2024/01/02 07:29:17;;;;;;;0.80;0.70;;;5.30;97.30;;;;;;4972323;28;20190;-96
2024/01/02 07:31:43;;;;;;;0.90;0.80;;;5.30;97.30;;;;;;4973662;28;20199;-95
2024/01/02 07:34:12;;;;;;;0.90;0.80;;;5.30;97.30;;;;;;4973100;29;20163;-94
2024/01/02 07:36:38;;;;;;;0.83;0.73;;;5.30;97.30;;;;;;4970778;28;20223;-93
2024/01/02 07:39:03;;;;;;;0.80;0.70;;;5.30;97.30;;;;;;4972025;28;20429;-94
2024/01/02 07:41:29;;;;;;;0.90;0.80;;;5.30;97.30;;;;;;4975243;28;20201;-95
2024/01/02 07:43:54;;;;;;;0.87;0.77;;;5.30;97.30;;;;;;4965313;28;20211;-95
2024/01/02 07:46:20;;;;;;;0.90;0.80;;;5.30;97.30;;;;;;4961831;28;20190;-95
2024/01/02 07:48:45;;;;;;;0.90;0.80;;;5.30;97.30;;;;;;4966234;28;20186;-95
2024/01/02 07:51:11;;;;;;;1.53;0.93;;;5.30;97.30;;;;;;4963691;28;20215;-92
2024/01/02 07:53:36;;;;;;;0.80;0.70;;;5.30;97.30;;;;;;4969394;28;20183;-96
2024/01/02 07:56:04;;;;;;;2.07;1.87;;;5.30;97.30;;;;;;4966699;28;20187;-95
2024/01/02 07:58:30;;;;;;;0.90;0.80;;;5.30;97.30;;;;;;4966049;28;20207;-95
2024/01/02 08:00:55;;;;;;;1.73;1.63;;;5.30;97.30;;;;;;4961942;28;20537;-93
2024/01/02 08:03:27;;;;;;;0.80;0.70;;;5.30;97.30;;;;;;4959858;29;20274;-94
2024/01/02 08:05:52;;;;;;;0.90;0.80;;;5.30;97.30;;;;;;4959282;28;20183;-93
2024/01/02 08:08:18;;;;;;;0.80;0.70;;;5.40;97.30;;;;;;4959062;28;20518;-93
2024/01/02 08:10:44;;;;;;;0.80;0.70;;;5.40;97.30;;;;;;4958763;28;20214;-93
2024/01/02 08:13:09;;;;;;;0.90;0.80;;;5.40;97.30;;;;;;4958735;28;20230;-93
2024/01/02 08:15:35;;;;;;;1.33;1.23;;;5.40;97.30;;;;;;4959680;28;20183;-93
2024/01/02 08:18:00;;;;;;;0.90;0.80;;;5.40;97.30;;;;;;4958091;28;20179;-95
2024/01/02 08:20:26;;;;;;;0.90;0.80;;;5.40;97.30;;;;;;4959342;28;20265;-94
2024/01/02 08:22:51;;;;;;;0.80;0.70;;;5.40;97.30;;;;;;4958235;28;20179;-94
2024/01/02 08:25:17;;;;;;;1.57;1.47;;;5.40;97.30;;;;;;4958291;28;20646;-94
2024/01/02 08:27:43;;;;;;;0.80;0.70;;;5.40;97.30;;;;;;4958433;28;20230;-94
2024/01/02 08:30:08;;;;;;;0.90;0.80;;;5.40;97.30;;;;;;4959577;29;21011;-96
2024/01/02 08:32:34;;;;;;;0.90;0.80;;;5.40;97.30;;;;;;4957116;28;20203;-93
2024/01/02 08:35:00;;;;;;;1.00;0.90;;;5.40;97.30;;;;;;4958599;28;20182;-94
2024/01/02 08:37:25;;;;;;;0.90;0.80;;;5.40;97.30;;;;;;4959791;28;20207;-93
2024/01/02 08:42:22;;;;;;;1.00;0.90;;;5.40;97.30;;;;;;4987310;28;20325;-87
2024/01/02 08:44:48;;;;;;;1.13;1.03;;;5.40;97.30;;;;;;4984576;28;20503;-87
2024/01/02 08:47:14;;;;;;;1.67;1.57;;;5.40;97.30;;;;;;4990590;28;20285;-87
2024/01/02 08:49:39;;;;;;;1.13;1.03;;;5.40;97.30;;;;;;4983571;28;20540;-88
2024/01/02 08:52:05;;;;;;;0.90;0.80;;;5.40;97.30;;;;;;4970295;28;20198;-88
2024/01/02 08:54:31;;;;;;;1.20;1.10;;;5.40;97.30;;;;;;4974487;28;20736;-87
2024/01/02 08:56:56;;;;;;;0.80;0.70;;;5.40;97.30;;;;;;4968892;28;20415;-88
2024/01/02 08:59:22;;;;;;;0.90;0.80;;;5.40;97.30;;;;;;4966675;28;20174;-87
2024/01/02 09:01:54;;;;;;;0.80;0.70;;;5.30;97.30;;;;;;4967305;28;20209;-88
2024/01/02 09:04:19;;;;;;;0.90;0.80;;;5.30;97.30;;;;;;4978673;28;20182;-87
2024/01/02 09:06:45;;;;;;;0.90;0.80;;;5.30;97.30;;;;;;4970662;28;20421;-86
2024/01/02 09:09:11;;;;;;;0.90;0.80;;;5.40;97.30;;;;;;4980228;28;20182;-86
2024/01/02 09:11:37;;;;;;;0.80;0.70;;;5.30;97.30;;;;;;4970791;28;20436;-86
2024/01/02 09:14:03;;;;;;;0.90;0.80;;;5.40;97.30;;;;;;4972586;28;20261;-86
2024/01/02 09:16:32;;;;;;;0.97;0.87;;;5.40;97.30;;;;;;4977197;28;20963;-90
2024/01/02 09:18:58;;;;;;;1.00;0.90;;;5.40;97.30;;;;;;4975226;28;20434;-87
2024/01/02 09:21:24;;;;;;;0.90;0.80;;;5.40;97.30;;;;;;4971045;28;20433;-88
2024/01/02 09:23:50;;;;;;;0.90;0.80;;;5.50;97.30;;;;;;4972693;28;20421;-87
2024/01/02 09:26:19;;;;;;;0.90;0.80;;;5.50;97.30;;;;;;4967551;28;20195;-90
2024/01/02 09:28:45;;;;;;;0.90;0.80;;;5.50;97.30;;;;;;4971491;28;20190;-88
2024/01/02 09:31:11;;;;;;;0.90;0.80;;;5.50;97.30;;;;;;4972370;28;21049;-89
2024/01/02 09:33:38;;;;;;;0.90;0.80;;;5.50;97.30;;;;;;4971144;28;20418;-88
2024/01/02 09:36:08;;;;;;;0.90;0.90;;;5.40;97.30;;;;;;4975508;28;20887;-89
2024/01/02 09:38:33;;;;;;;0.93;0.83;;;5.40;97.30;;;;;;4972186;28;20429;-88
2024/01/02 09:41:34;;;;;;;0.90;0.80;;;5.50;97.30;;;;;;4970463;28;20469;-88
2024/01/02 09:44:06;;;;;;;0.80;0.70;;;5.50;97.30;;;;;;4964830;28;20543;-88
2024/01/02 09:46:44;;;;;;;0.90;0.90;;;5.50;97.30;;;;;;4969872;28;20434;-88
2024/01/02 09:49:34;;;;;;;0.90;0.80;;;5.50;97.30;;;;;;4966896;28;20422;-87
2024/01/02 09:52:18;;;;;;;0.90;0.80;;;5.40;97.30;;;;;;4982306;28;20434;-87
2024/01/02 09:55:26;;;;;;;1.00;0.90;;;5.40;97.30;;;;;;4967346;28;20771;-91
2024/01/02 09:57:54;;;;;;;0.93;0.83;;;5.40;97.30;;;;;;4968289;28;20430;-88
2024/01/02 10:00:41;;;;;;;0.90;0.80;;;5.40;97.30;;;;;;4966427;28;20453;-89
2024/01/02 10:03:54;;;;;;;1.40;1.00;;;5.40;97.30;;;;;;4966563;28;20522;-87
2024/01/02 10:06:47;;;;;;;0.80;0.70;;;5.30;97.30;;;;;;4967776;28;20489;-89
2024/01/02 10:09:31;;;;;;;1.00;0.90;;;5.30;97.30;;;;;;4966836;28;21021;-88
2024/01/02 10:12:25;;;;;;;0.83;0.73;;;5.30;97.30;;;;;;4970469;28;20530;-88
2024/01/02 10:15:21;;;;;;;1.00;0.90;;;5.30;97.30;;;;;;4970601;28;20829;-89
2024/01/02 10:17:56;;;;;;;0.90;0.80;;;5.30;97.30;;;;;;4971273;28;20425;-87
2024/01/02 10:20:38;;;;;;;0.90;0.80;;;5.40;97.30;;;;;;4973074;28;20445;-88
2024/01/02 10:23:03;;;;;;;0.90;0.80;;;5.40;97.30;;;;;;4970022;28;20440;-88
2024/01/02 10:25:30;;;;;;;0.90;0.80;;;5.40;97.30;;;;;;4962899;28;20825;-88
2024/01/02 10:28:17;;;;;;;0.90;0.80;;;5.40;97.30;;;;;;4967986;28;20194;-88
2024/01/02 10:31:04;;;;;;;0.90;0.80;;;5.40;97.30;;;;;;4966884;28;20465;-88
2024/01/02 10:33:42;;;;;;;0.80;0.70;;;5.40;97.30;;;;;;4965195;28;20876;-90
2024/01/02 10:36:16;;;;;;;0.90;0.80;;;5.50;97.30;;;;;;4962331;28;20429;-91
2024/01/02 10:39:12;;;;;;;0.90;0.80;;;5.50;97.30;;;;;;4975110;28;20479;-89
2024/01/02 10:41:57;;;;;;;0.90;0.80;;;5.50;97.30;;;;;;4971198;28;20523;-88
2024/01/02 10:44:46;;;;;;;0.90;0.80;;;5.50;97.30;;;;;;4982806;28;20424;-88
2024/01/02 10:48:14;;;;;;;0.90;0.80;;;5.60;97.30;;;;;;4968523;28;20438;-89
2024/01/02 10:51:08;;;;;;;1.10;1.00;;;5.60;97.30;;;;;;4949769;28;20475;-91
2024/01/02 10:53:56;;;;;;;0.90;0.80;;;5.70;97.30;;;;;;4977833;28;20426;-89
2024/01/02 10:56:49;;;;;;;1.00;0.90;;;5.70;97.30;;;;;;4986650;28;20571;-95
2024/01/02 10:59:47;;;;;;;0.90;0.80;;;5.70;97.30;;;;;;4992582;28;20424;-88
2024/01/02 11:02:18;;;;;;;0.83;0.73;;;5.80;97.30;;;;;;4978395;23;20481;-65
2024/01/02 11:05:11;;;;;;;0.90;0.80;;;5.80;97.30;;;;;;4972057;28;20417;-65
2024/01/02 11:07:40;;;;;;;1.00;0.90;;;5.80;97.30;;;;;;4979107;28;20456;-66
2024/01/02 11:10:12;;;;;;;1.17;1.07;;;5.80;97.30;;;;;;4978690;28;20462;-65
2024/01/02 11:12:50;;;;;;;0.90;0.80;;;5.90;97.30;;;;;;4953770;28;20418;-65
2024/01/02 11:15:17;;;;;;;0.80;0.70;;;5.90;97.30;;;;;;4954254;28;20442;-68
2024/01/02 11:17:43;;;;;;;0.80;0.70;;;5.90;97.30;;;;;;4970391;28;20410;-65
2024/01/02 11:20:13;;;;;;;0.90;0.80;;;6.00;97.30;;;;;;4954463;28;20418;-66
2024/01/02 11:22:59;;;;;;;1.00;1.00;;;6.00;97.30;;;;;;4962346;28;20423;-65
2024/01/02 11:25:31;;;;;;;0.90;0.80;;;6.00;97.30;;;;;;4953965;28;20918;-65
2024/01/02 11:27:59;;;;;;;0.90;0.80;;;6.00;97.30;;;;;;4952481;28;20430;-65
2024/01/02 11:30:28;;;;;;;0.97;0.87;;;6.00;97.30;;;;;;4951650;28;20982;-65
2024/01/02 11:33:12;;;;;;;0.90;0.80;;;6.00;97.30;;;;;;4955111;28;20431;-65
2024/01/02 11:35:47;;;;;;;0.90;0.80;;;6.10;97.30;;;;;;4955528;28;20433;-65
2024/01/02 11:38:16;;;;;;;0.87;0.77;;;6.10;97.30;;;;;;4948471;28;20414;-65
2024/01/02 11:40:53;;;;;;;0.83;0.73;;;6.10;97.30;;;;;;4952291;28;20529;-65
2024/01/02 11:43:42;;;;;;;0.80;0.70;;;6.10;97.30;;;;;;4953004;29;20985;-65
2024/01/02 11:46:08;;;;;;;0.90;0.80;;;6.20;97.30;;;;;;4951905;28;20434;-65
2024/01/02 11:49:04;;;;;;;0.90;0.80;;;6.20;97.30;;;;;;4951269;28;20438;-65
2024/01/02 11:51:32;;;;;;;0.90;0.80;;;6.20;97.30;;;;;;4948985;28;20220;-65
2024/01/02 11:54:25;;;;;;;0.90;0.80;;;6.20;97.30;;;;;;4952654;28;20429;-65
2024/01/02 11:56:51;;;;;;;0.90;0.80;;;6.30;97.30;;;;;;4952536;28;20420;-67
2024/01/02 11:59:19;;;;;;;0.80;0.70;;;6.40;97.30;;;;;;4962698;28;20817;-66
2024/01/02 12:02:03;;;;;;;0.90;0.80;;;6.40;97.30;;;;;;4955787;28;20474;-65
2024/01/02 12:04:57;;;;;;;0.90;0.80;;;6.50;97.30;;;;;;4956272;28;20429;-66
2024/01/02 12:07:26;;;;;;;0.90;0.80;;;6.60;97.30;;;;;;4956295;28;20871;-65
2024/01/02 12:09:52;;;;;;;0.90;0.80;;;6.70;97.30;;;;;;4953509;28;20735;-65
2024/01/02 12:12:44;;;;;;;0.80;0.70;;;6.70;97.30;;;;;;4955636;28;20443;-65
2024/01/02 12:15:21;;;;;;;1.27;1.00;;;6.80;97.30;;;;;;4951713;28;20549;-66
2024/01/02 12:17:59;;;;;;;0.80;0.70;;;6.80;97.30;;;;;;4951387;28;20422;-65
2024/01/02 12:20:27;;;;;;;1.00;0.90;;;6.90;97.30;;;;;;4951805;28;20962;-65
2024/01/02 12:22:53;;;;;;;0.80;0.70;;;6.90;97.30;;;;;;4952648;28;20502;-65
2024/01/02 12:25:19;;;;;;;0.90;0.80;;;6.90;97.30;;;;;;4951412;28;20423;-65
2024/01/02 12:27:47;;;;;;;1.10;1.00;;;6.90;97.30;;;;;;4949739;29;20183;-66
2024/01/02 12:30:38;;;;;;;0.93;0.83;;;7.00;97.30;;;;;;4961406;28;20475;-65
2024/01/02 12:33:27;;;;;;;0.90;0.80;;;7.00;97.30;;;;;;4950260;28;20891;-66
2024/01/02 12:36:25;;;;;;;0.90;0.80;;;7.10;97.30;;;;;;4948981;28;20461;-67
2024/01/02 12:38:52;;;;;;;0.90;0.80;;;7.10;97.30;;;;;;4951068;28;20419;-65
2024/01/02 12:41:22;;;;;;;3.37;1.23;;;7.20;97.30;;;;;;4949831;28;20446;-66
2024/01/02 12:43:51;;;;;;;1.00;0.90;;;7.20;97.30;;;;;;4951200;28;20426;-65
2024/01/02 12:46:25;;;;;;;1.27;1.00;;;7.20;97.30;;;;;;4951230;28;20430;-65
2024/01/02 12:48:58;;;;;;;1.00;0.90;;;7.20;97.30;;;;;;4951075;28;21207;-66
2024/01/02 12:51:29;;;;;;;0.80;0.70;;;7.30;97.30;;;;;;4951001;29;20545;-65
2024/01/02 12:53:56;;;;;;;3.23;1.87;;;7.30;97.30;;;;;;4947842;28;20427;-65
2024/01/02 12:56:31;;;;;;;0.90;0.80;;;7.40;97.30;;;;;;4952253;28;20577;-66
2024/01/02 12:59:01;;;;;;;0.90;0.80;;;7.40;97.30;;;;;;4946827;28;20478;-65
2024/01/02 13:01:28;;;;;;;1.37;1.27;;;7.50;97.30;;;;;;4950784;28;20476;-66
2024/01/02 13:03:54;;;;;;;1.17;1.07;;;7.60;97.30;;;;;;4946005;28;20446;-65
2024/01/02 13:06:20;;;;;;;0.90;0.80;;;7.70;97.30;;;;;;4951476;28;20431;-65
2024/01/02 13:08:49;;;;;;;0.87;0.77;;;7.70;97.30;;;;;;4948842;28;20571;-65
2024/01/02 13:11:15;;;;;;;0.83;0.80;;;7.80;97.30;;;;;;4947537;28;20852;-67
2024/01/02 13:13:41;;;;;;;0.90;0.80;;;7.80;97.30;;;;;;4949104;28;20457;-66
2024/01/02 13:16:08;;;;;;;1.00;0.90;;;7.90;97.30;;;;;;4950684;28;20419;-66
2024/01/02 13:18:34;;;;;;;0.90;0.80;;;8.00;97.30;;;;;;4950993;28;20419;-66
2024/01/02 13:20:59;;;;;;;0.97;0.87;;;8.00;97.30;;;;;;4951086;28;20571;-66
2024/01/02 13:23:25;;;;;;;0.87;0.77;;;8.00;97.30;;;;;;4952614;28;20427;-66
2024/01/02 13:25:52;;;;;;;1.83;1.13;;;8.10;97.30;;;;;;4949992;28;20676;-65
2024/01/02 13:28:25;;;;;;;0.90;0.80;;;8.10;97.30;;;;;;4950696;28;20183;-65
2024/01/02 13:30:52;;;;;;;1.00;0.90;;;8.20;97.30;;;;;;4948435;28;20529;-66
2024/01/02 13:33:20;;;;;;;1.40;1.30;;;8.20;97.30;;;;;;4950388;28;20921;-66
2024/01/02 13:35:59;;;;;;;1.50;1.00;;;8.30;97.30;;;;;;4950152;28;20741;-65
2024/01/02 13:38:25;;;;;;;0.90;0.80;;;8.30;97.30;;;;;;4949293;28;20506;-64
2024/01/02 13:41:03;;;;;;;0.90;0.80;;;8.40;97.30;;;;;;4949977;28;20748;-65
2024/01/02 13:43:29;;;;;;;1.83;1.10;;;8.40;97.30;;;;;;4952298;28;20442;-66
2024/01/02 13:46:08;;;;;;;1.37;1.10;;;8.40;97.30;;;;;;4951703;28;20559;-65
2024/01/02 13:48:34;;;;;;;0.90;0.80;;;8.40;97.30;;;;;;4955104;28;20803;-66
2024/01/02 13:51:03;;;;;;;0.90;0.80;;;8.40;97.30;;;;;;4949962;28;20496;-65
2024/01/02 13:53:28;;;;;;;1.37;1.27;;;8.40;97.30;;;;;;4951253;29;20196;-65
2024/01/02 13:55:54;;;;;;;1.23;1.13;;;8.40;97.30;;;;;;4951291;28;20419;-65
2024/01/02 13:58:20;;;;;;;0.80;0.70;;;8.40;97.30;;;;;;4952503;28;20190;-66
2024/01/02 14:00:48;;;;;;;1.00;0.90;;;8.40;97.30;;;;;;4950988;28;20581;-64
2024/01/02 14:03:17;;;;;;;1.23;1.07;;;8.40;97.30;;;;;;4952750;28;20433;-66
2024/01/02 14:05:57;;;;;;;1.50;1.20;;;8.40;97.30;;;;;;4953815;28;20423;-65
2024/01/02 14:08:25;;;;;;;1.00;0.90;;;8.40;97.30;;;;;;4949457;28;20434;-65
2024/01/02 14:10:50;;;;;;;0.90;0.80;;;8.40;97.30;;;;;;4953793;28;20470;-65
2024/01/02 14:13:32;;;;;;;0.90;0.80;;;8.40;97.30;;;;;;4941902;28;20433;-66
2024/01/02 14:16:00;;;;;;;0.97;0.87;;;8.40;97.30;;;;;;4952043;28;20182;-65
2024/01/02 14:18:30;;;;;;;0.90;0.80;;;8.40;97.30;;;;;;4952232;28;20485;-66
2024/01/02 14:21:13;;;;;;;1.10;1.00;;;8.50;97.30;;;;;;4950424;28;20438;-66
2024/01/02 14:24:04;;;;;;;0.93;0.83;;;8.50;97.30;;;;;;4949788;28;20434;-66
2024/01/02 14:27:11;;;;;;;0.90;0.80;;;8.60;97.30;;;;;;4952053;28;20431;-65
2024/01/02 14:29:49;;;;;;;0.87;0.77;;;8.60;97.30;;;;;;4946858;28;20516;-65
2024/01/02 14:32:42;;;;;;;1.03;0.90;;;8.60;97.30;;;;;;4949019;28;20961;-67
2024/01/02 14:35:14;;;;;;;1.87;1.77;;;8.60;97.30;;;;;;4949873;28;20419;-67
2024/01/02 14:37:58;;;;;;;1.00;0.90;;;8.70;97.30;;;;;;4951059;28;20494;-66
2024/01/02 14:40:56;;;;;;;0.80;0.70;;;8.70;97.30;;;;;;4950076;28;20419;-66
2024/01/02 14:43:47;;;;;;;1.27;1.10;;;8.70;97.30;;;;;;4924077;28;20427;-65
2024/01/02 14:46:37;;;;;;;0.90;0.80;;;8.70;97.30;;;;;;4945681;28;20927;-65
2024/01/02 14:49:05;;;;;;;1.03;0.93;;;8.70;97.30;;;;;;4950825;28;20907;-65
2024/01/02 14:52:01;;;;;;;2.00;1.90;;;8.60;97.30;;;;;;4944274;28;20594;-65
2024/01/02 14:55:04;;;;;;;1.10;1.00;;;8.60;97.30;;;;;;4945991;28;20493;-65
2024/01/02 14:57:42;;;;;;;1.57;1.47;;;8.60;97.30;;;;;;4951732;28;20417;-65
2024/01/02 15:00:09;;;;;;;1.00;0.90;;;8.60;97.30;;;;;;4966555;23;20687;-65
2024/01/02 15:02:50;;;;;;;1.03;0.93;;;8.60;97.30;;;;;;4958109;28;20958;-65
2024/01/02 15:05:44;;;;;;;1.00;0.90;;;8.60;97.30;;;;;;4939404;28;20491;-65
2024/01/02 15:08:19;;;;;;;1.00;0.90;;;8.60;97.30;;;;;;4953214;28;20430;-65
2024/01/02 15:10:59;;;;;;;3.90;2.20;;;8.60;97.30;;;;;;4950562;28;20478;-67
2024/01/02 15:13:30;;;;;;;2.60;1.30;;;8.60;97.30;;;;;;4948470;28;20435;-65
2024/01/02 15:16:20;;;;;;;0.80;0.70;;;8.60;97.30;;;;;;4938756;28;20424;-66
2024/01/02 15:19:27;;;;;;;1.00;0.90;;;8.60;97.30;;;;;;4942763;28;20424;-65
2024/01/02 15:22:18;;;;;;;0.90;0.80;;;8.60;97.30;;;;;;4925632;28;20457;-66
2024/01/02 15:24:55;;;;;;;1.20;1.10;;;8.60;97.30;;;;;;4950973;28;20812;-68
2024/01/02 15:27:29;;;;;;;5.17;2.60;;;8.50;97.30;;;;;;4931078;28;20431;-68
2024/01/02 15:29:59;;;;;;;1.50;1.40;;;8.50;97.30;;;;;;4954275;28;20826;-66
2024/01/02 15:32:33;;;;;;;1.33;0.97;;;8.60;97.30;;;;;;4948194;28;20459;-69
2024/01/02 15:35:07;;;;;;;0.80;0.70;;;8.50;97.30;;;;;;4955235;28;20457;-68
2024/01/02 15:37:42;;;;;;;1.70;1.47;;;8.50;97.30;;;;;;4962627;28;20425;-66
2024/01/02 15:40:09;;;;;;;4.73;2.60;;;8.50;97.30;;;;;;4966488;28;20483;-66
2024/01/02 15:42:40;;;;;;;0.87;0.80;;;8.50;97.30;;;;;;4968287;28;20494;-66
2024/01/02 15:45:12;;;;;;;0.90;0.80;;;8.40;97.30;;;;;;4939422;28;21217;-68
2024/01/02 15:48:04;;;;;;;1.20;1.10;;;8.40;97.30;;;;;;4947734;28;20426;-66
2024/01/02 15:50:40;;;;;;;0.90;0.80;;;8.40;97.30;;;;;;4951260;28;20545;-67
2024/01/02 15:53:14;;;;;;;1.03;0.93;;;8.40;97.30;;;;;;4949045;28;20518;-66
2024/01/02 15:55:42;;;;;;;1.00;0.90;;;8.30;97.30;;;;;;4943572;28;20423;-66
2024/01/02 15:58:27;;;;;;;1.27;1.17;;;8.30;97.30;;;;;;4951089;28;20446;-66
2024/01/02 16:00:57;;;;;;;1.10;1.00;;;8.30;97.30;;;;;;4945570;28;20467;-65
2024/01/02 16:03:35;;;;;;;0.90;0.80;;;8.30;97.30;;;;;;4947350;28;20446;-66
2024/01/02 16:06:13;;;;;;;1.20;1.10;;;8.30;97.30;;;;;;4946906;28;20457;-66
2024/01/02 16:09:06;;;;;;;0.90;0.80;;;8.30;97.30;;;;;;4947198;28;20422;-66
2024/01/02 16:11:49;;;;;;;1.57;1.47;;;8.20;97.30;;;;;;4942260;28;20478;-66
2024/01/02 16:14:33;;;;;;;0.90;0.80;;;8.20;97.30;;;;;;4948155;28;20957;-66
2024/01/02 16:17:05;;;;;;;0.90;0.80;;;8.20;97.30;;;;;;4945169;28;20987;-66
2024/01/02 16:19:57;;;;;;;1.20;1.10;;;8.20;97.30;;;;;;4950749;28;20451;-66
2024/01/02 16:22:35;;;;;;;0.90;0.80;;;8.20;97.30;;;;;;4946062;28;20431;-66
2024/01/02 16:25:07;;;;;;;1.10;1.00;;;8.30;97.30;;;;;;4957677;28;20417;-66
2024/01/02 16:27:44;;;;;;;0.80;0.70;;;8.20;97.30;;;;;;4965584;28;20941;-66
2024/01/02 16:30:35;;;;;;;0.87;0.77;;;8.20;97.30;;;;;;4966286;28;20465;-67
2024/01/02 16:33:36;;;;;;;1.00;0.90;;;8.20;97.30;;;;;;4947545;28;20415;-66
2024/01/02 16:36:16;;;;;;;0.90;0.80;;;8.20;97.30;;;;;;4932381;28;20428;-67
2024/01/02 16:38:45;;;;;;;1.77;1.73;;;8.20;97.30;;;;;;4938208;28;20919;-69
2024/01/02 16:41:23;;;;;;;0.80;0.70;;;8.20;97.30;;;;;;4958157;28;20434;-68
2024/01/02 16:43:50;;;;;;;1.07;0.97;;;8.20;97.30;;;;;;4953868;28;20429;-66
2024/01/02 16:46:23;;;;;;;0.90;0.80;;;8.20;97.30;;;;;;4949611;28;20443;-67
2024/01/02 16:48:49;;;;;;;1.00;0.90;;;8.20;97.30;;;;;;4953467;28;20426;-67
2024/01/02 16:51:15;;;;;;;0.90;0.80;;;8.20;97.30;;;;;;4941890;28;20470;-66
2024/01/02 16:53:42;;;;;;;1.43;1.33;;;8.20;97.30;;;;;;4948824;28;20419;-67
2024/01/02 16:56:11;;;;;;;0.80;0.70;;;8.20;97.30;;;;;;4951075;28;20590;-67
2024/01/02 16:58:38;;;;;;;0.90;0.80;;;8.20;97.30;;;;;;4956706;28;20449;-68
2024/01/02 17:01:04;;;;;;;0.90;0.80;;;8.20;97.30;;;;;;4949180;28;20482;-66
2024/01/02 17:03:36;;;;;;;1.13;1.03;;;8.20;97.30;;;;;;4933868;28;20419;-67
2024/01/02 17:06:10;;;;;;;0.90;0.80;;;8.20;97.30;;;;;;4945181;28;20175;-66
2024/01/02 17:08:37;;;;;;;0.90;0.80;;;8.20;97.30;;;;;;4955516;28;20485;-67
2024/01/02 17:11:05;;;;;;;0.90;0.80;;;8.20;97.30;;;;;;4946441;28;20489;-66
2024/01/02 17:13:34;;;;;;;0.70;0.70;;;8.20;97.30;;;;;;4943912;28;20426;-66
2024/01/02 17:16:03;;;;;;;0.87;0.77;;;8.20;97.30;;;;;;4949067;28;20427;-66
2024/01/02 17:18:33;;;;;;;1.07;0.97;;;8.20;97.30;;;;;;4937048;28;21013;-66
2024/01/02 17:21:00;;;;;;;1.10;1.00;;;8.20;97.30;;;;;;4940173;28;20443;-65
2024/01/02 17:23:28;;;;;;;0.83;0.73;;;8.20;97.30;;;;;;4937668;28;20413;-66
2024/01/02 17:25:54;;;;;;;0.80;0.70;;;8.20;97.30;;;;;;4942438;28;20707;-67
2024/01/02 17:28:19;;;;;;;0.90;0.80;;;8.10;97.30;;;;;;4944391;28;20419;-66
2024/01/02 17:30:46;;;;;;;0.90;0.80;;;8.10;97.30;;;;;;4946553;28;20471;-66
2024/01/02 17:33:15;;;;;;;0.90;0.80;;;8.10;97.30;;;;;;4932358;28;20178;-66
2024/01/02 17:35:41;;;;;;;0.90;0.80;;;8.10;97.30;;;;;;4940364;28;20412;-66
2024/01/02 17:38:07;;;;;;;1.10;1.00;;;8.10;97.30;;;;;;4948015;28;20415;-65
2024/01/02 17:40:33;;;;;;;0.80;0.70;;;8.10;97.30;;;;;;4939948;28;20440;-65
2024/01/02 17:42:59;;;;;;;1.23;1.13;;;8.10;97.30;;;;;;4947843;28;20414;-66
2024/01/02 17:45:31;;;;;;;0.80;0.70;;;8.10;97.30;;;;;;4938763;28;20460;-66
2024/01/02 17:48:08;;;;;;;0.77;0.73;;;8.10;97.30;;;;;;4938031;28;20506;-66
2024/01/02 17:50:36;;;;;;;1.00;0.90;;;8.10;97.30;;;;;;4945397;28;20632;-66
2024/01/02 17:53:03;;;;;;;2.70;2.33;;;8.10;97.30;;;;;;4950188;28;21018;-66
2024/01/02 17:55:29;;;;;;;0.80;0.70;;;8.10;97.30;;;;;;4949757;28;20419;-66
2024/01/02 17:58:09;;;;;;;1.00;0.90;;;8.10;97.30;;;;;;4933171;28;20435;-66
2024/01/02 18:00:41;;;;;;;0.80;0.70;;;8.10;97.30;;;;;;4938174;28;20467;-65
2024/01/02 18:03:17;;;;;;;0.80;0.70;;;8.10;97.30;;;;;;4936535;28;20431;-66
2024/01/02 18:05:57;;;;;;;0.80;0.70;;;8.10;97.30;;;;;;4943457;28;20422;-70
2024/01/02 18:08:27;;;;;;;0.90;0.80;;;8.50;97.30;;;;;;4933116;28;20719;-63
2024/01/02 18:11:19;;;;;;;1.73;1.20;;;8.80;97.30;;;;;;4939719;28;20554;-73
2024/01/02 18:14:10;;;;;;;0.90;0.80;;;8.90;97.30;;;;;;4940303;28;20460;-72
2024/01/02 18:16:42;;;;;;;1.00;0.90;;;9.10;97.30;;;;;;4942504;28;20446;-65
2024/01/02 18:19:29;;;;;;;1.00;0.90;;;8.80;97.30;;;;;;4948924;28;20739;-67
2024/01/02 18:22:00;;;;;;;1.17;1.17;;;8.60;97.30;;;;;;4945425;28;20450;-65
2024/01/02 18:24:45;;;;;;;0.80;0.70;;;8.40;97.30;;;;;;4929468;28;20448;-64
2024/01/02 18:27:28;;;;;;;0.80;0.70;;;8.30;97.30;;;;;;4959274;28;20738;-65
2024/01/02 18:30:13;;;;;;;4.23;1.27;;;8.20;97.30;;;;;;4941499;28;20458;-65